sensor_id;sensor_type;location;lat;lon;timestamp;temperature;humidity
66337;SHT30;53139;45.576;5.304;2022-12-18T10:00:25;3.74;86.81
66337;SHT30;53139;45.576;5.304;2022-12-18T10:03:26;3.82;86.84
66337;SHT30;53139;45.576;5.304;2022-12-18T10:09:59;3.91;86.43
66337;SHT30;53139;45.576;5.304;2022-12-18T10:19:57;4.43;85.53
66337;SHT30;53139;45.576;5.304;2022-12-18T10:23:18;4.62;84.76
66337;SHT30;53139;45.576;5.304;2022-12-18T10:26:22;4.67;85.53
66337;SHT30;53139;45.576;5.304;2022-12-18T10:29:25;4.60;85.12
66337;SHT30;53139;45.576;5.304;2022-12-18T10:32:30;4.37;85.89
66337;SHT30;53139;45.576;5.304;2022-12-18T10:35:31;4.84;85.89
66337;SHT30;53139;45.576;5.304;2022-12-18T10:38:32;4.84;85.29
66337;SHT30;53139;45.576;5.304;2022-12-18T10:41:33;5.08;84.51
66337;SHT30;53139;45.576;5.304;2022-12-18T10:44:33;5.54;84.84
66337;SHT30;53139;45.576;5.304;2022-12-18T10:47:34;5.50;85.01
66337;SHT30;53139;45.576;5.304;2022-12-18T10:50:36;5.78;83.82
66337;SHT30;53139;45.576;5.304;2022-12-18T10:53:37;6.07;83.80
66337;SHT30;53139;45.576;5.304;2022-12-18T10:56:39;6.14;83.50
66337;SHT30;53139;45.576;5.304;2022-12-18T11:00:00;6.01;83.35
66337;SHT30;53139;45.576;5.304;2022-12-18T11:03:01;5.96;83.92
66337;SHT30;53139;45.576;5.304;2022-12-18T11:06:13;6.37;83.80
66337;SHT30;53139;45.576;5.304;2022-12-18T11:09:22;6.29;82.42
66337;SHT30;53139;45.576;5.304;2022-12-18T11:12:23;6.55;82.96
66337;SHT30;53139;45.576;5.304;2022-12-18T11:15:29;6.86;83.70
66337;SHT30;53139;45.576;5.304;2022-12-18T11:18:33;6.99;83.53
66337;SHT30;53139;45.576;5.304;2022-12-18T11:21:39;7.03;81.68
66337;SHT30;53139;45.576;5.304;2022-12-18T11:24:40;7.20;82.51
66337;SHT30;53139;45.576;5.304;2022-12-18T11:27:48;7.43;81.79
66337;SHT30;53139;45.576;5.304;2022-12-18T11:30:49;7.89;80.58
66337;SHT30;53139;45.576;5.304;2022-12-18T11:36:57;8.19;80.81
66337;SHT30;53139;45.576;5.304;2022-12-18T11:40:05;8.17;80.05
66337;SHT30;53139;45.576;5.304;2022-12-18T11:43:21;8.31;80.62
66337;SHT30;53139;45.576;5.304;2022-12-18T11:46:49;8.44;80.45
66337;SHT30;53139;45.576;5.304;2022-12-18T11:49:52;8.33;78.45
66337;SHT30;53139;45.576;5.304;2022-12-18T11:52:54;8.76;79.89
66337;SHT30;53139;45.576;5.304;2022-12-18T11:56:16;8.83;80.63
66337;SHT30;53139;45.576;5.304;2022-12-18T12:03:36;9.20;79.95
66337;SHT30;53139;45.576;5.304;2022-12-18T12:20:39;9.88;78.83
66337;SHT30;53139;45.576;5.304;2022-12-18T12:30:21;10.17;77.75
66337;SHT30;53139;45.576;5.304;2022-12-18T12:33:39;10.37;77.63
66337;SHT30;53139;45.576;5.304;2022-12-18T12:40:02;10.67;78.38
66337;SHT30;53139;45.576;5.304;2022-12-18T12:43:19;10.16;76.42
66337;SHT30;53139;45.576;5.304;2022-12-18T12:46:22;10.32;77.10
66337;SHT30;53139;45.576;5.304;2022-12-18T12:49:27;10.33;78.63
66337;SHT30;53139;45.576;5.304;2022-12-18T12:52:40;10.16;77.34
66337;SHT30;53139;45.576;5.304;2022-12-18T12:55:43;10.50;77.49
66337;SHT30;53139;45.576;5.304;2022-12-18T13:02:14;10.23;77.60
66337;SHT30;53139;45.576;5.304;2022-12-18T13:08:34;10.48;77.75
66337;SHT30;53139;45.576;5.304;2022-12-18T13:11:52;10.67;76.91
66337;SHT30;53139;45.576;5.304;2022-12-18T13:15:19;10.67;76.30
66337;SHT30;53139;45.576;5.304;2022-12-18T13:18:22;10.86;78.97
66337;SHT30;53139;45.576;5.304;2022-12-18T13:21:27;10.54;79.40
66337;SHT30;53139;45.576;5.304;2022-12-18T13:24:34;11.20;76.96
66337;SHT30;53139;45.576;5.304;2022-12-18T13:33:46;11.12;76.86
66337;SHT30;53139;45.576;5.304;2022-12-18T13:36:48;11.20;78.70
66337;SHT30;53139;45.576;5.304;2022-12-18T13:39:49;10.78;77.49
66337;SHT30;53139;45.576;5.304;2022-12-18T13:42:49;10.83;75.49
66337;SHT30;53139;45.576;5.304;2022-12-18T13:49:42;10.85;75.97
66337;SHT30;53139;45.576;5.304;2022-12-18T13:52:43;11.57;77.68
66337;SHT30;53139;45.576;5.304;2022-12-18T13:55:44;11.48;75.49
66337;SHT30;53139;45.576;5.304;2022-12-18T13:58:45;12.27;78.07
66337;SHT30;53139;45.576;5.304;2022-12-18T14:01:54;11.13;74.83
66337;SHT30;53139;45.576;5.304;2022-12-18T14:04:55;11.61;76.31
66337;SHT30;53139;45.576;5.304;2022-12-18T14:08:05;11.51;75.07
66337;SHT30;53139;45.576;5.304;2022-12-18T14:11:07;11.78;75.51
66337;SHT30;53139;45.576;5.304;2022-12-18T14:14:18;11.35;77.58
66337;SHT30;53139;45.576;5.304;2022-12-18T14:17:19;11.53;77.91
66337;SHT30;53139;45.576;5.304;2022-12-18T14:20:20;11.90;75.74
66337;SHT30;53139;45.576;5.304;2022-12-18T14:26:30;11.77;76.54
66337;SHT30;53139;45.576;5.304;2022-12-18T14:29:30;11.50;77.43
66337;SHT30;53139;45.576;5.304;2022-12-18T14:32:31;11.27;75.46
66337;SHT30;53139;45.576;5.304;2022-12-18T14:35:33;11.15;79.28
66337;SHT30;53139;45.576;5.304;2022-12-18T14:38:38;11.17;78.03
66337;SHT30;53139;45.576;5.304;2022-12-18T14:41:39;11.10;76.67
66337;SHT30;53139;45.576;5.304;2022-12-18T14:44:39;10.55;77.00
66337;SHT30;53139;45.576;5.304;2022-12-18T14:47:43;11.07;81.97
66337;SHT30;53139;45.576;5.304;2022-12-18T14:50:44;10.60;77.97
66337;SHT30;53139;45.576;5.304;2022-12-18T14:53:53;9.85;77.02
66337;SHT30;53139;45.576;5.304;2022-12-18T14:57:03;10.20;76.93
66337;SHT30;53139;45.576;5.304;2022-12-18T15:00:15;9.16;81.37
66337;SHT30;53139;45.576;5.304;2022-12-18T15:03:19;8.85;82.85
66337;SHT30;53139;45.576;5.304;2022-12-18T15:09:31;7.81;84.68
66337;SHT30;53139;45.576;5.304;2022-12-18T15:18:41;7.33;85.83
66337;SHT30;53139;45.576;5.304;2022-12-18T15:21:42;7.09;84.82
66337;SHT30;53139;45.576;5.304;2022-12-18T15:24:43;7.00;86.15
66337;SHT30;53139;45.576;5.304;2022-12-18T15:27:46;6.89;85.47
66337;SHT30;53139;45.576;5.304;2022-12-18T15:34:19;6.67;86.63
66337;SHT30;53139;45.576;5.304;2022-12-18T15:37:21;6.51;89.61
66337;SHT30;53139;45.576;5.304;2022-12-18T15:40:22;6.45;86.78
66337;SHT30;53139;45.576;5.304;2022-12-18T15:43:24;6.41;90.39
66337;SHT30;53139;45.576;5.304;2022-12-18T15:46:34;6.36;87.71
66337;SHT30;53139;45.576;5.304;2022-12-18T15:49:34;6.40;87.56
66337;SHT30;53139;45.576;5.304;2022-12-18T15:52:43;6.30;87.23
66337;SHT30;53139;45.576;5.304;2022-12-18T15:55:44;6.20;89.78
66337;SHT30;53139;45.576;5.304;2022-12-18T15:59:10;6.19;86.72
66337;SHT30;53139;45.576;5.304;2022-12-18T16:02:16;6.12;86.49
66337;SHT30;53139;45.576;5.304;2022-12-18T16:05:19;6.05;86.71
66337;SHT30;53139;45.576;5.304;2022-12-18T16:08:20;6.01;89.61
66337;SHT30;53139;45.576;5.304;2022-12-18T16:11:31;5.81;90.11
66337;SHT30;53139;45.576;5.304;2022-12-18T16:14:37;5.95;89.42
66337;SHT30;53139;45.576;5.304;2022-12-18T16:17:38;6.12;86.32
66337;SHT30;53139;45.576;5.304;2022-12-18T16:20:38;6.07;86.65
66337;SHT30;53139;45.576;5.304;2022-12-18T16:23:39;5.99;87.43
66337;SHT30;53139;45.576;5.304;2022-12-18T16:26:39;5.98;87.74
66337;SHT30;53139;45.576;5.304;2022-12-18T16:29:41;5.84;89.32
66337;SHT30;53139;45.576;5.304;2022-12-18T16:32:43;5.82;89.96
66337;SHT30;53139;45.576;5.304;2022-12-18T16:35:51;5.81;88.34
66337;SHT30;53139;45.576;5.304;2022-12-18T16:38:51;5.93;86.39
66337;SHT30;53139;45.576;5.304;2022-12-18T16:41:52;5.67;89.71
66337;SHT30;53139;45.576;5.304;2022-12-18T16:44:52;5.62;88.84
66337;SHT30;53139;45.576;5.304;2022-12-18T16:47:53;5.58;88.98
66337;SHT30;53139;45.576;5.304;2022-12-18T16:51:01;5.72;86.57
66337;SHT30;53139;45.576;5.304;2022-12-18T16:54:02;5.47;89.36
66337;SHT30;53139;45.576;5.304;2022-12-18T16:57:03;5.47;87.53
66337;SHT30;53139;45.576;5.304;2022-12-18T17:00:04;5.44;88.52
66337;SHT30;53139;45.576;5.304;2022-12-18T17:03:05;5.40;89.30
66337;SHT30;53139;45.576;5.304;2022-12-18T17:06:06;5.20;91.93
66337;SHT30;53139;45.576;5.304;2022-12-18T17:09:10;5.24;88.31
66337;SHT30;53139;45.576;5.304;2022-12-18T17:12:11;5.19;89.74
66337;SHT30;53139;45.576;5.304;2022-12-18T17:15:11;5.18;90.22
66337;SHT30;53139;45.576;5.304;2022-12-18T17:18:11;5.12;91.00
66337;SHT30;53139;45.576;5.304;2022-12-18T17:21:12;5.09;91.94
66337;SHT30;53139;45.576;5.304;2022-12-18T17:24:14;5.13;90.53
66337;SHT30;53139;45.576;5.304;2022-12-18T17:27:14;5.08;92.27
66337;SHT30;53139;45.576;5.304;2022-12-18T17:30:15;4.93;92.39
66337;SHT30;53139;45.576;5.304;2022-12-18T17:33:15;4.78;91.86
66337;SHT30;53139;45.576;5.304;2022-12-18T17:36:16;4.82;91.60
66337;SHT30;53139;45.576;5.304;2022-12-18T17:39:18;5.00;88.18
66337;SHT30;53139;45.576;5.304;2022-12-18T17:42:19;4.72;89.61
66337;SHT30;53139;45.576;5.304;2022-12-18T17:45:19;4.65;88.19
66337;SHT30;53139;45.576;5.304;2022-12-18T17:48:20;4.54;88.66
66337;SHT30;53139;45.576;5.304;2022-12-18T17:51:20;4.51;88.36
66337;SHT30;53139;45.576;5.304;2022-12-18T17:54:21;4.46;88.44
66337;SHT30;53139;45.576;5.304;2022-12-18T17:57:21;4.33;89.50
66337;SHT30;53139;45.576;5.304;2022-12-18T18:00:21;4.36;88.92
66337;SHT30;53139;45.576;5.304;2022-12-18T18:03:22;4.37;88.60
66337;SHT30;53139;45.576;5.304;2022-12-18T18:06:22;4.32;89.38
66337;SHT30;53139;45.576;5.304;2022-12-18T18:09:23;4.47;89.45
66337;SHT30;53139;45.576;5.304;2022-12-18T18:12:23;4.54;89.50
66337;SHT30;53139;45.576;5.304;2022-12-18T18:15:42;4.50;88.69
66337;SHT30;53139;45.576;5.304;2022-12-18T18:18:42;4.34;90.64
66337;SHT30;53139;45.576;5.304;2022-12-18T18:21:45;4.58;87.69
66337;SHT30;53139;45.576;5.304;2022-12-18T18:24:45;4.44;89.89
66337;SHT30;53139;45.576;5.304;2022-12-18T18:27:46;4.48;88.88
66337;SHT30;53139;45.576;5.304;2022-12-18T18:30:46;4.40;89.94
66337;SHT30;53139;45.576;5.304;2022-12-18T18:33:47;4.57;88.18
66337;SHT30;53139;45.576;5.304;2022-12-18T18:36:47;4.62;87.99
66337;SHT30;53139;45.576;5.304;2022-12-18T18:39:47;4.65;87.85
66337;SHT30;53139;45.576;5.304;2022-12-18T18:42:48;4.68;87.78
66337;SHT30;53139;45.576;5.304;2022-12-18T18:45:56;4.57;89.49
66337;SHT30;53139;45.576;5.304;2022-12-18T18:48:57;4.58;89.33
66337;SHT30;53139;45.576;5.304;2022-12-18T18:51:59;4.62;88.84
66337;SHT30;53139;45.576;5.304;2022-12-18T18:55:01;4.74;87.52
66337;SHT30;53139;45.576;5.304;2022-12-18T18:58:02;4.54;89.45
66337;SHT30;53139;45.576;5.304;2022-12-18T19:01:06;4.50;90.07
66337;SHT30;53139;45.576;5.304;2022-12-18T19:04:06;4.60;89.08
66337;SHT30;53139;45.576;5.304;2022-12-18T19:07:07;4.57;89.26
66337;SHT30;53139;45.576;5.304;2022-12-18T19:10:08;4.62;88.51
66337;SHT30;53139;45.576;5.304;2022-12-18T19:13:11;4.57;89.81
66337;SHT30;53139;45.576;5.304;2022-12-18T19:16:22;4.50;90.86
66337;SHT30;53139;45.576;5.304;2022-12-18T19:19:22;4.68;88.91
66337;SHT30;53139;45.576;5.304;2022-12-18T19:22:24;4.60;91.52
66337;SHT30;53139;45.576;5.304;2022-12-18T19:25:24;4.55;91.40
66337;SHT30;53139;45.576;5.304;2022-12-18T19:28:25;4.71;91.10
66337;SHT30;53139;45.576;5.304;2022-12-18T19:31:27;4.91;88.35
66337;SHT30;53139;45.576;5.304;2022-12-18T19:34:28;4.79;88.78
66337;SHT30;53139;45.576;5.304;2022-12-18T19:37:28;4.71;90.15
66337;SHT30;53139;45.576;5.304;2022-12-18T19:40:28;4.84;89.45
66337;SHT30;53139;45.576;5.304;2022-12-18T19:43:29;4.88;89.13
66337;SHT30;53139;45.576;5.304;2022-12-18T19:46:29;4.64;92.88
66337;SHT30;53139;45.576;5.304;2022-12-18T19:49:30;4.46;94.73
66337;SHT30;53139;45.576;5.304;2022-12-18T19:52:31;4.30;94.97
66337;SHT30;53139;45.576;5.304;2022-12-18T19:55:32;4.37;95.02
66337;SHT30;53139;45.576;5.304;2022-12-18T19:58:33;4.34;94.62
66337;SHT30;53139;45.576;5.304;2022-12-18T20:01:33;4.47;93.07
66337;SHT30;53139;45.576;5.304;2022-12-18T20:04:33;4.64;91.99
66337;SHT30;53139;45.576;5.304;2022-12-18T20:07:34;4.37;94.67
66337;SHT30;53139;45.576;5.304;2022-12-18T20:10:34;4.51;93.11
66337;SHT30;53139;45.576;5.304;2022-12-18T20:13:35;4.57;92.54
66337;SHT30;53139;45.576;5.304;2022-12-18T20:16:35;4.75;91.32
66337;SHT30;53139;45.576;5.304;2022-12-18T20:19:36;5.16;87.90
66337;SHT30;53139;45.576;5.304;2022-12-18T20:22:36;4.95;90.49
66337;SHT30;53139;45.576;5.304;2022-12-18T20:25:37;4.62;93.46
66337;SHT30;53139;45.576;5.304;2022-12-18T20:28:37;4.57;92.17
66337;SHT30;53139;45.576;5.304;2022-12-18T20:31:38;4.57;93.20
66337;SHT30;53139;45.576;5.304;2022-12-18T20:34:39;4.68;91.25
66337;SHT30;53139;45.576;5.304;2022-12-18T20:37:39;5.19;89.16
66337;SHT30;53139;45.576;5.304;2022-12-18T20:40:40;4.81;92.55
66337;SHT30;53139;45.576;5.304;2022-12-18T20:43:41;4.75;93.36
66337;SHT30;53139;45.576;5.304;2022-12-18T20:46:42;4.54;95.24
66337;SHT30;53139;45.576;5.304;2022-12-18T20:49:42;4.48;95.63
66337;SHT30;53139;45.576;5.304;2022-12-18T20:52:42;4.29;96.29
66337;SHT30;53139;45.576;5.304;2022-12-18T20:55:43;4.29;95.75
66337;SHT30;53139;45.576;5.304;2022-12-18T20:58:43;4.07;95.85
66337;SHT30;53139;45.576;5.304;2022-12-18T21:01:44;4.20;95.33
66337;SHT30;53139;45.576;5.304;2022-12-18T21:04:45;4.36;94.36
66337;SHT30;53139;45.576;5.304;2022-12-18T21:07:46;4.26;93.71
66337;SHT30;53139;45.576;5.304;2022-12-18T21:10:46;4.32;93.78
66337;SHT30;53139;45.576;5.304;2022-12-18T21:13:46;4.57;91.12
66337;SHT30;53139;45.576;5.304;2022-12-18T21:16:49;4.40;92.46
66337;SHT30;53139;45.576;5.304;2022-12-18T21:19:50;4.38;92.37
66337;SHT30;53139;45.576;5.304;2022-12-18T21:22:51;4.46;91.77
66337;SHT30;53139;45.576;5.304;2022-12-18T21:25:51;4.60;91.06
66337;SHT30;53139;45.576;5.304;2022-12-18T21:29:00;4.50;91.40
66337;SHT30;53139;45.576;5.304;2022-12-18T21:32:01;4.64;89.55
66337;SHT30;53139;45.576;5.304;2022-12-18T21:35:02;4.61;89.70
66337;SHT30;53139;45.576;5.304;2022-12-18T21:38:03;4.54;90.12
66337;SHT30;53139;45.576;5.304;2022-12-18T21:41:07;4.47;89.69
66337;SHT30;53139;45.576;5.304;2022-12-18T21:44:12;4.40;90.30
66337;SHT30;53139;45.576;5.304;2022-12-18T21:47:12;4.46;90.22
66337;SHT30;53139;45.576;5.304;2022-12-18T21:50:13;4.51;90.10
66337;SHT30;53139;45.576;5.304;2022-12-18T21:53:13;4.64;89.66
66337;SHT30;53139;45.576;5.304;2022-12-18T21:56:13;4.65;91.02
66337;SHT30;53139;45.576;5.304;2022-12-18T21:59:17;4.54;92.59
66337;SHT30;53139;45.576;5.304;2022-12-18T22:02:20;4.50;93.43
66337;SHT30;53139;45.576;5.304;2022-12-18T22:05:20;4.67;92.77
66337;SHT30;53139;45.576;5.304;2022-12-18T22:08:21;4.61;93.46
66337;SHT30;53139;45.576;5.304;2022-12-18T22:11:21;4.53;94.46
66337;SHT30;53139;45.576;5.304;2022-12-18T22:14:22;4.48;95.03
66337;SHT30;53139;45.576;5.304;2022-12-18T22:17:22;4.44;93.89
66337;SHT30;53139;45.576;5.304;2022-12-18T22:20:23;4.48;93.83
66337;SHT30;53139;45.576;5.304;2022-12-18T22:23:23;4.14;94.61
66337;SHT30;53139;45.576;5.304;2022-12-18T22:26:25;4.20;95.99
66337;SHT30;53139;45.576;5.304;2022-12-18T22:29:25;4.20;96.52
66337;SHT30;53139;45.576;5.304;2022-12-18T22:32:44;4.26;95.16
66337;SHT30;53139;45.576;5.304;2022-12-18T22:35:45;4.17;96.96
66337;SHT30;53139;45.576;5.304;2022-12-18T22:38:45;4.17;94.98
66337;SHT30;53139;45.576;5.304;2022-12-18T22:41:46;4.21;96.01
66337;SHT30;53139;45.576;5.304;2022-12-18T22:44:46;4.19;94.86
66337;SHT30;53139;45.576;5.304;2022-12-18T22:47:47;4.21;95.69
66337;SHT30;53139;45.576;5.304;2022-12-18T22:50:47;4.37;93.70
66337;SHT30;53139;45.576;5.304;2022-12-18T22:53:48;4.23;95.29
66337;SHT30;53139;45.576;5.304;2022-12-18T22:56:49;4.50;93.46
66337;SHT30;53139;45.576;5.304;2022-12-18T22:59:50;4.58;92.48
66337;SHT30;53139;45.576;5.304;2022-12-18T23:02:53;4.81;89.20
66337;SHT30;53139;45.576;5.304;2022-12-18T23:06:04;4.55;90.24
66337;SHT30;53139;45.576;5.304;2022-12-18T23:09:05;4.54;89.69
66337;SHT30;53139;45.576;5.304;2022-12-18T23:12:06;4.51;89.56
66337;SHT30;53139;45.576;5.304;2022-12-18T23:15:06;4.47;89.88
66337;SHT30;53139;45.576;5.304;2022-12-18T23:18:07;4.67;87.77
66337;SHT30;53139;45.576;5.304;2022-12-18T23:21:16;4.33;89.27
66337;SHT30;53139;45.576;5.304;2022-12-18T23:24:16;4.48;88.20
66337;SHT30;53139;45.576;5.304;2022-12-18T23:27:17;4.50;87.41
66337;SHT30;53139;45.576;5.304;2022-12-18T23:30:17;4.21;90.53
66337;SHT30;53139;45.576;5.304;2022-12-18T23:33:18;4.33;89.28
66337;SHT30;53139;45.576;5.304;2022-12-18T23:36:19;4.02;93.49
66337;SHT30;53139;45.576;5.304;2022-12-18T23:39:20;4.24;90.27
66337;SHT30;53139;45.576;5.304;2022-12-18T23:42:20;4.06;91.33
66337;SHT30;53139;45.576;5.304;2022-12-18T23:45:21;3.96;91.00
66337;SHT30;53139;45.576;5.304;2022-12-18T23:48:21;4.03;91.68
66337;SHT30;53139;45.576;5.304;2022-12-18T23:51:22;4.07;92.31
66337;SHT30;53139;45.576;5.304;2022-12-18T23:54:24;3.86;91.94
66337;SHT30;53139;45.576;5.304;2022-12-18T23:57:25;3.95;91.69
